createdAt,value
2023-01-21T00:01:10.790Z,101941.84
2023-01-21T00:03:38.901Z,101941.88
2023-01-21T00:06:07.432Z,101943.78
2023-01-21T00:08:36.634Z,101951.81
2023-01-21T00:11:08.386Z,101954.94
2023-01-21T00:13:36.813Z,101953.56
2023-01-21T00:16:06.323Z,101963.16
2023-01-21T00:18:35.342Z,101955.50
2023-01-21T00:21:03.344Z,101961.94
2023-01-21T00:23:31.129Z,101969.78
2023-01-21T00:26:00.974Z,101967.06
2023-01-21T00:28:29.531Z,101971.78
2023-01-21T00:31:00.899Z,101981.31
2023-01-21T00:33:29.286Z,101972.00
2023-01-21T00:36:01.385Z,101977.31
2023-01-21T00:38:29.612Z,101986.13
2023-01-21T00:41:02.768Z,101994.72
2023-01-21T00:43:31.251Z,101989.91
2023-01-21T00:45:59.229Z,101993.44
2023-01-21T00:48:28.475Z,101994.31
2023-01-21T00:51:00.482Z,101999.63
2023-01-21T00:53:29.000Z,101996.81
2023-01-21T00:56:00.117Z,102004.97
2023-01-21T00:58:30.055Z,102005.59
2023-01-21T01:01:02.559Z,102014.19
2023-01-21T01:03:30.802Z,102014.44
2023-01-21T01:06:03.322Z,102021.47
2023-01-21T01:08:31.060Z,102023.97
2023-01-21T01:10:58.891Z,102020.19
2023-01-21T01:13:27.501Z,102025.47
2023-01-21T01:15:58.701Z,102030.88
2023-01-21T01:18:27.738Z,102034.69
2023-01-21T01:20:55.585Z,102035.88
2023-01-21T01:23:23.717Z,102046.88
2023-01-21T01:25:58.941Z,102045.03
2023-01-21T01:28:27.112Z,102056.38
2023-01-21T01:30:56.786Z,102063.00
2023-01-21T01:33:25.223Z,102069.81
2023-01-21T01:35:55.735Z,102074.81
2023-01-21T01:38:23.918Z,102076.06
2023-01-21T01:40:53.243Z,102089.53
2023-01-21T01:43:23.932Z,102089.69
2023-01-21T01:45:51.990Z,102086.44
2023-01-21T01:48:25.091Z,102098.88
2023-01-21T01:50:53.022Z,102105.38
2023-01-21T01:53:21.515Z,102107.81
2023-01-21T01:55:50.589Z,102108.06
2023-01-21T01:58:21.888Z,102124.28
2023-01-21T02:00:49.923Z,102122.06
2023-01-21T02:03:36.664Z,102121.69
2023-01-21T02:06:05.923Z,102130.84
2023-01-21T02:08:36.122Z,102134.31
2023-01-21T02:11:07.453Z,102126.28
2023-01-21T02:13:35.171Z,102137.59
2023-01-21T02:16:18.488Z,102143.06
2023-01-21T02:18:59.440Z,102136.81
2023-01-21T02:21:48.364Z,102138.50
2023-01-21T02:25:02.707Z,102143.00
2023-01-21T02:27:52.920Z,102150.84
2023-01-21T02:31:17.497Z,102154.69
2023-01-21T02:33:57.225Z,102162.41
2023-01-21T02:36:45.315Z,102161.34
2023-01-21T02:39:20.958Z,102163.38
2023-01-21T02:42:01.657Z,102160.13
2023-01-21T02:44:38.631Z,102166.34
2023-01-21T02:47:15.967Z,102168.47
2023-01-21T02:49:47.744Z,102172.69
2023-01-21T02:52:20.250Z,102175.34
2023-01-21T02:54:56.621Z,102170.78
2023-01-21T02:57:34.861Z,102176.16
2023-01-21T03:00:07.303Z,102169.97
2023-01-21T03:03:00.549Z,102180.53
2023-01-21T03:05:40.924Z,102187.28
2023-01-21T03:08:13.639Z,102187.38
2023-01-21T03:10:44.162Z,102180.03
2023-01-21T03:13:41.926Z,102189.97
2023-01-21T03:16:29.138Z,102188.22
2023-01-21T03:19:01.213Z,102200.03
2023-01-21T03:21:32.969Z,102194.78
2023-01-21T03:24:01.190Z,102197.72
2023-01-21T03:26:32.983Z,102196.31
2023-01-21T03:29:07.099Z,102194.06
2023-01-21T03:31:39.972Z,102193.50
2023-01-21T03:34:12.016Z,102197.25
2023-01-21T03:36:46.198Z,102196.13
2023-01-21T03:39:19.705Z,102206.97
2023-01-21T03:41:47.802Z,102195.84
2023-01-21T03:44:15.615Z,102202.81
2023-01-21T03:46:52.273Z,102195.19
2023-01-21T03:49:26.449Z,102206.16
2023-01-21T03:51:58.952Z,102201.81
2023-01-21T03:54:26.814Z,102207.50
2023-01-21T03:56:54.608Z,102204.94
2023-01-21T03:59:22.335Z,102198.19
2023-01-21T04:01:50.151Z,102199.94
2023-01-21T04:04:17.898Z,102202.41
2023-01-21T04:06:45.691Z,102199.53
2023-01-21T04:09:14.900Z,102199.25
2023-01-21T04:11:42.934Z,102197.22
2023-01-21T04:14:10.680Z,102201.31
2023-01-21T04:16:38.481Z,102207.84
2023-01-21T04:19:06.399Z,102202.63
2023-01-21T04:21:34.096Z,102205.63
2023-01-21T04:24:01.890Z,102206.94
2023-01-21T04:26:31.008Z,102206.25
2023-01-21T04:28:58.721Z,102198.44
2023-01-21T04:31:26.490Z,102207.50
2023-01-21T04:33:54.226Z,102215.75
2023-01-21T04:36:22.101Z,102209.28
2023-01-21T04:38:49.897Z,102203.63
2023-01-21T04:41:17.581Z,102208.13
2023-01-21T04:43:46.685Z,102210.66
2023-01-21T04:46:14.432Z,102207.50
2023-01-21T04:48:42.253Z,102214.66
2023-01-21T04:51:10.088Z,102221.41
2023-01-21T04:53:37.857Z,102223.75
2023-01-21T04:56:06.203Z,102228.56
2023-01-21T04:58:34.451Z,102222.25
2023-01-21T05:01:03.579Z,102234.97
2023-01-21T05:03:31.315Z,102224.84
2023-01-21T05:05:59.009Z,102231.84
2023-01-21T05:08:26.742Z,102240.72
2023-01-21T05:10:54.474Z,102243.91
2023-01-21T05:13:22.162Z,102239.69
2023-01-21T05:15:50.077Z,102254.09
2023-01-21T05:18:19.241Z,102252.81
2023-01-21T05:20:47.020Z,102254.97
2023-01-21T05:23:14.695Z,102254.13
2023-01-21T05:25:42.412Z,102257.16
2023-01-21T05:28:10.124Z,102258.75
2023-01-21T05:30:40.278Z,102253.84
2023-01-21T05:33:08.765Z,102256.97
2023-01-21T05:35:37.833Z,102258.22
2023-01-21T05:38:05.584Z,102254.22
2023-01-21T05:40:33.405Z,102260.81
2023-01-21T05:43:01.341Z,102262.56
2023-01-21T05:45:29.216Z,102262.16
2023-01-21T05:47:57.400Z,102257.44
2023-01-21T05:50:25.349Z,102263.59
2023-01-21T05:52:54.786Z,102265.72
2023-01-21T05:55:22.733Z,102270.13
2023-01-21T05:57:51.339Z,102276.03
2023-01-21T06:00:20.193Z,102277.44
2023-01-21T06:02:48.255Z,102279.50
2023-01-21T06:05:16.729Z,102274.38
2023-01-21T06:07:44.576Z,102287.34
2023-01-21T06:10:13.942Z,102286.94
2023-01-21T06:12:41.849Z,102287.72
2023-01-21T06:15:10.452Z,102296.84
2023-01-21T06:17:39.831Z,102297.69
2023-01-21T06:20:08.986Z,102296.66
2023-01-21T06:22:36.932Z,102304.53
2023-01-21T06:25:05.219Z,102310.28
2023-01-21T06:27:37.179Z,102309.03
2023-01-21T06:30:07.016Z,102311.03
2023-01-21T06:32:35.739Z,102320.38
2023-01-21T06:35:05.081Z,102317.09
2023-01-21T06:37:34.188Z,102323.06
2023-01-21T06:40:02.955Z,102332.41
2023-01-21T06:42:31.561Z,102336.56
2023-01-21T06:45:01.874Z,102339.41
2023-01-21T06:47:30.888Z,102341.00
2023-01-21T06:49:59.564Z,102343.63
2023-01-21T06:52:28.401Z,102349.41
2023-01-21T06:54:57.018Z,102353.19
2023-01-21T06:57:31.272Z,102356.31
2023-01-21T07:00:01.693Z,102358.84
2023-01-21T07:02:33.147Z,102356.88
2023-01-21T07:05:16.856Z,102359.56
2023-01-21T07:07:49.349Z,102366.72
2023-01-21T07:10:34.296Z,102365.47
2023-01-21T07:13:05.670Z,102363.66
2023-01-21T07:15:38.019Z,102373.81
2023-01-21T07:18:35.711Z,102369.78
2023-01-21T07:21:22.423Z,102374.25
2023-01-21T07:23:59.392Z,102379.28
2023-01-21T07:29:21.949Z,102378.13
2023-01-21T07:31:54.616Z,102390.66
2023-01-21T07:34:27.390Z,102397.31
2023-01-21T07:36:56.933Z,102384.59
2023-01-21T07:39:26.852Z,102392.94
2023-01-21T07:42:00.930Z,102404.66
2023-01-21T07:44:38.222Z,102399.97
2023-01-21T07:47:25.211Z,102402.88
2023-01-21T07:50:09.547Z,102405.19
2023-01-21T07:52:41.906Z,102410.00
2023-01-21T07:55:12.860Z,102401.81
2023-01-21T07:57:43.134Z,102404.03
2023-01-21T08:00:16.168Z,102410.16
2023-01-21T08:02:49.898Z,102415.28
2023-01-21T08:05:31.389Z,102420.47
2023-01-21T08:08:03.205Z,102423.50
2023-01-21T08:10:35.351Z,102429.94
2023-01-21T08:13:05.706Z,102422.28
2023-01-21T08:15:40.789Z,102431.16
2023-01-21T08:18:20.393Z,102431.66
2023-01-21T08:20:56.122Z,102436.91
2023-01-21T08:23:28.091Z,102439.53
2023-01-21T08:25:56.239Z,102439.59
2023-01-21T08:28:24.666Z,102443.84
2023-01-21T08:30:52.889Z,102450.28
2023-01-21T08:33:22.277Z,102453.16
2023-01-21T08:35:53.319Z,102466.34
2023-01-21T08:38:21.237Z,102465.22
2023-01-21T08:40:49.352Z,102465.81
2023-01-21T08:43:17.587Z,102465.19
2023-01-21T08:45:45.628Z,102464.63
2023-01-21T08:48:13.673Z,102477.22
2023-01-21T08:50:43.595Z,102483.56
2023-01-21T08:53:12.289Z,102482.44
2023-01-21T08:55:40.410Z,102483.91
2023-01-21T08:58:08.560Z,102484.56
2023-01-21T09:00:36.826Z,102492.38
2023-01-21T09:03:05.294Z,102499.59
2023-01-21T09:05:33.468Z,102500.75
2023-01-21T09:08:03.069Z,102504.63
2023-01-21T09:10:48.547Z,102503.38
2023-01-21T09:13:16.748Z,102512.59
2023-01-21T09:15:45.287Z,102500.44
2023-01-21T09:18:13.899Z,102502.94
2023-01-21T09:20:42.803Z,102500.56
2023-01-21T09:23:25.251Z,102503.66
2023-01-21T09:25:54.514Z,102498.94
2023-01-21T09:28:56.269Z,102504.00
2023-01-21T09:31:26.034Z,102507.59
2023-01-21T09:33:56.315Z,102492.47
2023-01-21T09:36:26.524Z,102489.31
2023-01-21T09:39:04.312Z,102486.75
2023-01-21T09:41:37.422Z,102494.19
2023-01-21T09:44:17.480Z,102499.00
2023-01-21T09:46:50.472Z,102499.63
2023-01-21T09:49:23.863Z,102497.81
2023-01-21T09:51:57.366Z,102513.19
2023-01-21T09:54:31.279Z,102503.16
2023-01-21T09:57:11.774Z,102508.59
2023-01-21T09:59:51.792Z,102512.91
2023-01-21T10:02:28.783Z,102514.06
2023-01-21T10:05:09.295Z,102515.50
2023-01-21T10:07:44.570Z,102517.13
2023-01-21T10:10:21.575Z,102517.66
2023-01-21T10:13:06.729Z,102513.16
2023-01-21T10:15:43.369Z,102517.34
2023-01-21T10:18:16.098Z,102520.28
2023-01-21T10:20:50.640Z,102516.84
2023-01-21T10:23:23.865Z,102516.56
2023-01-21T10:25:52.207Z,102522.00
2023-01-21T10:28:24.385Z,102517.56
2023-01-21T10:30:55.666Z,102522.84
2023-01-21T10:33:25.198Z,102518.06
2023-01-21T10:36:14.869Z,102519.69
2023-01-21T10:38:50.851Z,102522.47
2023-01-21T10:41:33.941Z,102515.00
2023-01-21T10:44:07.177Z,102520.59
2023-01-21T10:46:47.149Z,102507.34
2023-01-21T10:49:27.178Z,102526.16
2023-01-21T10:52:03.852Z,102520.56
2023-01-21T10:54:46.490Z,102514.94
2023-01-21T10:57:32.265Z,102512.25
2023-01-21T11:00:03.089Z,102507.47
2023-01-21T11:02:34.423Z,102520.66
2023-01-21T11:05:06.220Z,102516.72
2023-01-21T11:07:38.878Z,102515.31
2023-01-21T11:10:08.600Z,102521.47
2023-01-21T11:12:37.152Z,102516.34
2023-01-21T11:15:16.130Z,102512.66
2023-01-21T11:17:49.041Z,102518.22
2023-01-21T11:20:22.089Z,102518.91
2023-01-21T11:22:50.892Z,102523.03
2023-01-21T11:25:34.689Z,102527.19
2023-01-21T11:28:03.108Z,102522.09
2023-01-21T11:30:51.019Z,102519.03
2023-01-21T11:33:26.686Z,102521.53
2023-01-21T11:35:56.373Z,102526.56
2023-01-21T11:38:34.204Z,102521.59
2023-01-21T11:41:10.686Z,102521.41
2023-01-21T11:43:43.018Z,102523.91
2023-01-21T11:46:35.147Z,102519.38
2023-01-21T11:49:27.098Z,102523.09
2023-01-21T11:52:15.164Z,102527.13
2023-01-21T11:54:43.450Z,102520.56
2023-01-21T11:58:00.503Z,102522.53
2023-01-21T12:00:28.946Z,102514.47
2023-01-21T12:03:01.221Z,102511.88
2023-01-21T12:05:34.713Z,102508.66
2023-01-21T12:08:04.744Z,102517.16
2023-01-21T12:10:36.722Z,102504.75
2023-01-21T12:13:20.125Z,102512.50
2023-01-21T12:16:13.719Z,102509.78
2023-01-21T12:19:04.011Z,102509.88
2023-01-21T12:21:44.603Z,102501.00
2023-01-21T12:24:28.854Z,102505.34
2023-01-21T12:27:04.974Z,102503.13
2023-01-21T12:29:46.397Z,102497.38
2023-01-21T12:32:23.681Z,102492.03
2023-01-21T12:34:57.012Z,102491.06
2023-01-21T12:37:30.500Z,102488.69
2023-01-21T12:40:02.571Z,102486.81
2023-01-21T12:42:37.261Z,102482.81
2023-01-21T12:45:11.061Z,102483.97
2023-01-21T12:47:46.004Z,102485.44
2023-01-21T12:50:24.321Z,102484.41
2023-01-21T12:53:02.877Z,102478.56
2023-01-21T12:55:38.322Z,102480.31
2023-01-21T12:58:12.417Z,102474.72
2023-01-21T13:00:42.816Z,102457.13
2023-01-21T13:03:18.546Z,102476.75
2023-01-21T13:05:54.081Z,102476.25
2023-01-21T13:08:34.286Z,102468.38
2023-01-21T13:11:10.801Z,102477.66
2023-01-21T13:13:42.849Z,102472.38
2023-01-21T13:16:12.378Z,102473.44
2023-01-21T13:18:43.193Z,102476.44
2023-01-21T13:21:28.327Z,102477.16
2023-01-21T13:24:06.889Z,102485.59
2023-01-21T13:26:43.541Z,102486.81
2023-01-21T13:29:19.834Z,102487.50
2023-01-21T13:31:54.706Z,102484.31
2023-01-21T13:34:30.622Z,102482.78
2023-01-21T13:37:11.742Z,102481.75
2023-01-21T13:39:48.847Z,102472.38
2023-01-21T13:42:32.461Z,102481.44
2023-01-21T13:45:14.491Z,102488.22
2023-01-21T13:48:06.696Z,102481.66
2023-01-21T13:50:47.422Z,102485.44
2023-01-21T13:53:34.225Z,102482.81
2023-01-21T13:56:18.723Z,102482.47
2023-01-21T13:58:52.209Z,102490.91
2023-01-21T14:01:25.462Z,102486.56
2023-01-21T14:03:57.692Z,102480.44
2023-01-21T14:06:29.963Z,102479.16
2023-01-21T14:09:02.195Z,102481.91
2023-01-21T14:11:38.263Z,102480.25
2023-01-21T14:14:40.604Z,102484.81
2023-01-21T14:17:30.950Z,102486.34
2023-01-21T14:20:33.633Z,102476.19
2023-01-21T14:23:15.435Z,102465.09
2023-01-21T14:26:01.839Z,102482.56
2023-01-21T14:28:38.674Z,102479.88
2023-01-21T14:31:13.848Z,102482.25
2023-01-21T14:33:46.886Z,102472.88
2023-01-21T14:36:18.892Z,102475.19
2023-01-21T14:39:01.000Z,102476.03
2023-01-21T14:41:56.200Z,102472.09
2023-01-21T14:44:43.628Z,102474.03
2023-01-21T14:47:16.161Z,102477.72
2023-01-21T14:49:46.153Z,102471.97
2023-01-21T14:52:16.027Z,102472.75
2023-01-21T14:54:46.163Z,102466.72
2023-01-21T14:57:25.940Z,102471.81
2023-01-21T15:00:06.008Z,102476.03
2023-01-21T15:02:36.541Z,102476.91
2023-01-21T15:05:16.680Z,102468.22
2023-01-21T15:07:46.935Z,102466.69
2023-01-21T15:10:19.086Z,102460.53
2023-01-21T15:12:52.855Z,102466.09
2023-01-21T15:15:31.630Z,102462.44
2023-01-21T15:18:22.667Z,102468.34
2023-01-21T15:20:52.399Z,102465.84
2023-01-21T15:23:28.360Z,102475.56
2023-01-21T15:26:30.440Z,102464.94
2023-01-21T15:29:27.862Z,102467.97
2023-01-21T15:32:17.336Z,102466.84
2023-01-21T15:34:47.019Z,102478.31
2023-01-21T15:37:20.662Z,102472.38
2023-01-21T15:39:52.056Z,102466.75
2023-01-21T15:42:30.330Z,102468.78
2023-01-21T15:45:10.398Z,102468.31
2023-01-21T15:47:52.499Z,102461.41
2023-01-21T15:50:23.232Z,102473.78
2023-01-21T15:53:06.878Z,102460.84
2023-01-21T15:55:58.149Z,102469.09
2023-01-21T15:58:38.869Z,102452.28
2023-01-21T16:01:15.523Z,102461.69
2023-01-21T16:03:52.881Z,102457.78
2023-01-21T16:06:30.574Z,102463.47
2023-01-21T16:09:05.999Z,102467.78
2023-01-21T16:11:48.753Z,102456.56
2023-01-21T16:14:28.776Z,102463.53
2023-01-21T16:17:08.349Z,102463.72
2023-01-21T16:19:43.084Z,102465.72
2023-01-21T16:22:13.664Z,102467.81
2023-01-21T16:24:44.764Z,102467.31
2023-01-21T16:27:21.186Z,102473.78
2023-01-21T16:29:49.401Z,102470.78
2023-01-21T16:32:19.003Z,102467.72
2023-01-21T16:34:48.653Z,102469.25
2023-01-21T16:37:18.805Z,102467.22
2023-01-21T16:39:47.352Z,102470.44
2023-01-21T16:42:27.361Z,102461.34
2023-01-21T16:44:55.377Z,102465.16
2023-01-21T16:47:26.128Z,102473.03
2023-01-21T16:49:55.581Z,102464.34
2023-01-21T16:52:24.432Z,102458.19
2023-01-21T16:54:53.455Z,102470.03
2023-01-21T16:57:25.608Z,102479.09
2023-01-21T16:59:55.891Z,102468.69
2023-01-21T17:02:26.995Z,102455.91
2023-01-21T17:04:58.863Z,102461.38
2023-01-21T17:07:31.296Z,102462.63
2023-01-21T17:10:03.309Z,102459.66
2023-01-21T17:12:35.360Z,102463.94
2023-01-21T17:15:14.591Z,102464.09
2023-01-21T17:17:42.778Z,102466.56
2023-01-21T17:20:35.456Z,102464.22
2023-01-21T17:23:05.935Z,102459.75
2023-01-21T17:25:36.685Z,102459.28
2023-01-21T17:28:18.153Z,102460.28
2023-01-21T17:30:46.040Z,102457.31
2023-01-21T17:33:30.399Z,102458.81
2023-01-21T17:36:18.677Z,102451.16
2023-01-21T17:38:47.828Z,102455.47
2023-01-21T17:41:25.645Z,102458.09
2023-01-21T17:43:56.663Z,102452.81
2023-01-21T17:46:25.919Z,102466.72
2023-01-21T17:48:56.989Z,102457.09
2023-01-21T17:51:29.019Z,102453.53
2023-01-21T17:53:59.997Z,102455.88
2023-01-21T17:56:41.853Z,102445.38
2023-01-21T17:59:40.952Z,102450.56
2023-01-21T18:02:12.311Z,102450.50
2023-01-21T18:04:40.426Z,102442.31
2023-01-21T18:07:22.200Z,102454.66
2023-01-21T18:09:50.856Z,102457.63
2023-01-21T18:12:19.475Z,102454.34
2023-01-21T18:14:47.893Z,102451.91
2023-01-21T18:17:20.169Z,102456.97
2023-01-21T18:19:48.007Z,102454.00
2023-01-21T18:22:22.943Z,102442.75
2023-01-21T18:24:50.850Z,102460.25
2023-01-21T18:27:20.540Z,102446.09
2023-01-21T18:29:48.976Z,102443.09
2023-01-21T18:32:17.136Z,102444.47
2023-01-21T18:34:46.662Z,102446.91
2023-01-21T18:37:16.385Z,102441.97
2023-01-21T18:39:45.888Z,102452.75
2023-01-21T18:42:16.254Z,102439.00
2023-01-21T18:44:44.971Z,102451.38
2023-01-21T18:47:14.138Z,102446.72
2023-01-21T18:49:42.449Z,102455.16
2023-01-21T18:52:14.288Z,102448.09
2023-01-21T18:54:42.462Z,102446.63
2023-01-21T18:57:14.781Z,102449.28
2023-01-21T18:59:42.655Z,102451.41
2023-01-21T19:02:15.343Z,102451.78
2023-01-21T19:04:44.081Z,102455.75
2023-01-21T19:07:17.803Z,102462.47
2023-01-21T19:09:46.282Z,102450.41
2023-01-21T19:12:18.515Z,102444.22
2023-01-21T19:14:46.749Z,102450.97
2023-01-21T19:17:16.476Z,102450.97
2023-01-21T19:19:44.567Z,102449.75
2023-01-21T19:22:15.111Z,102457.22
2023-01-21T19:24:43.057Z,102454.38
2023-01-21T19:27:15.982Z,102444.59
2023-01-21T19:29:48.283Z,102445.25
2023-01-21T19:32:16.454Z,102430.44
2023-01-21T19:34:44.303Z,102426.06
2023-01-21T19:37:15.221Z,102428.00
2023-01-21T19:39:43.100Z,102427.53
2023-01-21T19:42:12.100Z,102424.97
2023-01-21T19:44:40.272Z,102437.88
2023-01-21T19:47:18.135Z,102447.00
2023-01-21T19:49:46.309Z,102433.03
2023-01-21T19:52:17.708Z,102434.53
2023-01-21T19:54:45.698Z,102434.53
2023-01-21T19:57:15.445Z,102431.06
2023-01-21T19:59:44.304Z,102439.09
2023-01-21T20:02:13.883Z,102441.78
2023-01-21T20:04:41.771Z,102461.81
2023-01-21T20:07:14.094Z,102462.22
2023-01-21T20:09:42.069Z,102461.38
2023-01-21T20:12:12.792Z,102462.88
2023-01-21T20:14:40.664Z,102474.75
2023-01-21T20:17:14.299Z,102469.34
2023-01-21T20:19:42.187Z,102474.34
2023-01-21T20:22:10.679Z,102467.34
2023-01-21T20:24:38.585Z,102480.28
2023-01-21T20:27:09.649Z,102473.38
2023-01-21T20:29:40.062Z,102462.19
2023-01-21T20:32:13.815Z,102458.75
2023-01-21T20:34:41.722Z,102457.16
2023-01-21T20:37:10.873Z,102440.22
2023-01-21T20:39:38.724Z,102434.88
2023-01-21T20:42:06.581Z,102431.66
2023-01-21T20:44:34.395Z,102425.22
2023-01-21T20:47:02.535Z,102412.84
2023-01-21T20:49:45.747Z,102418.72
2023-01-21T20:52:13.578Z,102431.63
2023-01-21T20:54:41.628Z,102444.97
2023-01-21T20:57:13.534Z,102442.13
2023-01-21T20:59:41.273Z,102437.72
2023-01-21T21:02:12.412Z,102439.81
2023-01-21T21:04:42.089Z,102452.34
2023-01-21T21:07:16.408Z,102453.81
2023-01-21T21:09:44.204Z,102455.03
2023-01-21T21:12:12.053Z,102451.66
2023-01-21T21:14:39.837Z,102450.13
2023-01-21T21:17:11.627Z,102440.56
2023-01-21T21:19:39.399Z,102444.44
2023-01-21T21:22:08.503Z,102430.56
2023-01-21T21:24:36.231Z,102430.56
2023-01-21T21:27:04.059Z,102434.41
2023-01-21T21:29:32.068Z,102432.47
2023-01-21T21:32:02.547Z,102435.59
2023-01-21T21:34:30.330Z,102442.22
2023-01-21T21:36:58.239Z,102438.03
2023-01-21T21:39:27.337Z,102440.66
2023-01-21T21:42:15.087Z,102448.28
2023-01-21T21:44:44.030Z,102452.84
2023-01-21T21:47:29.343Z,102436.75
2023-01-21T21:49:59.483Z,102432.88
2023-01-21T21:52:27.356Z,102433.91
2023-01-21T21:54:56.561Z,102429.72
2023-01-21T21:57:24.416Z,102421.78
2023-01-21T21:59:52.203Z,102420.31
2023-01-21T22:02:20.824Z,102419.25
2023-01-21T22:04:48.868Z,102415.91
2023-01-21T22:07:16.886Z,102412.03
2023-01-21T22:09:44.866Z,102403.63
2023-01-21T22:12:14.258Z,102396.44
2023-01-21T22:14:42.140Z,102379.81
2023-01-21T22:17:09.994Z,102371.13
2023-01-21T22:19:37.961Z,102355.06
2023-01-21T22:22:07.059Z,102367.69
2023-01-21T22:24:34.776Z,102359.22
2023-01-21T22:27:02.578Z,102356.38
2023-01-21T22:29:31.697Z,102362.78
2023-01-21T22:31:59.581Z,102375.22
2023-01-21T22:34:27.527Z,102369.16
2023-01-21T22:36:55.294Z,102366.00
2023-01-21T22:39:23.015Z,102364.03
2023-01-21T22:41:50.759Z,102371.91
2023-01-21T22:44:18.705Z,102372.03
2023-01-21T22:46:52.918Z,102385.41
2023-01-21T22:49:29.386Z,102379.72
2023-01-21T22:52:06.135Z,102366.78
2023-01-21T22:54:38.635Z,102372.75
2023-01-21T22:57:06.677Z,102373.38
2023-01-21T22:59:34.727Z,102362.59
2023-01-21T23:02:03.913Z,102367.69
2023-01-21T23:04:31.768Z,102373.19
2023-01-21T23:06:59.585Z,102365.22
2023-01-21T23:09:27.495Z,102362.41
2023-01-21T23:11:55.300Z,102354.94
2023-01-21T23:14:23.185Z,102351.25
2023-01-21T23:16:53.465Z,102353.97
2023-01-21T23:19:22.825Z,102353.88
2023-01-21T23:21:50.666Z,102346.13
2023-01-21T23:24:19.394Z,102353.69
2023-01-21T23:26:47.339Z,102342.84
2023-01-21T23:29:15.163Z,102346.94
2023-01-21T23:31:43.434Z,102349.06
2023-01-21T23:34:14.068Z,102344.56
2023-01-21T23:36:43.316Z,102347.47
2023-01-21T23:39:12.974Z,102337.13
2023-01-21T23:41:41.196Z,102332.47
2023-01-21T23:44:10.747Z,102331.94
2023-01-21T23:46:39.046Z,102329.97
2023-01-21T23:49:07.237Z,102335.69
2023-01-21T23:51:35.097Z,102319.00
2023-01-21T23:54:04.668Z,102307.25
2023-01-21T23:56:32.580Z,102315.84
2023-01-21T23:59:00.517Z,102316.03
